Terminal Aerodrome Forecast
Issued by NWS Mt. Holly, NJ

Home | Current Version | Previous Version | Text Only | Print | Product List | Glossary On
Versions: 1 2 3 4 5 6 7 8 9 10 11 12 13 14 15 16
000
FTUS41 KPHI 280524
TAFABE
TAF
KABE 280524Z 2806/2906 VRB03KT P6SM SCT250
     FM281700 23006KT P6SM SCT050
     FM290100 VRB03KT P6SM BKN050
      TEMPO 2905/2906 5SM -SHRA BR OVC035=

USA.gov is the U.S. government's official web portal to all federal, state and local government web resources and services.